DAASDAAG

Guest
Details From DAAS - Ain Arnat
To DAAG - Alger Houari Boumediene
Flight Number -
Tags generated
Created
Modified
Stats Distance 107 nm / 198 km
Max Altitude 0 ft / 0 m
Waypoints 3
Social Downloads 0
Likes 0
Share VATSIM

Download

Looking for another format? Having issues loading an existing format? Contact us
Advertisement - Login to hide

Notes

Basic altitude profile: - Ascent Rate: 2500ft/min - Ascent Speed: 250kts - Cruise Altitude: 35000ft - Cruise Speed: 420kts - Descent Rate: 1500ft/min - Descent Speed: 250kts Options: - Use NATs: yes - Use PACOTS: yes - Use low airways: yes - Use high airways: yes

Route

DAAS ALR DAAG

ID Type Via Altitude Latitude Longitude Leg Dist Tot Dist Heading (true) Name
O DAAS APT - 0 ft / 0 m 36.17813˚ 5.32449˚ - 0 nm - Ain Arnat
ALR VOR - 0 ft / 0 m 36.69111˚ 3.21556˚ 106 nm 106 nm 287° / 286° ALGER VOR-DME
O DAAG APT - 0 ft / 0 m 36.69752˚ 3.21308˚ 0 nm 106 nm 343° / 343° Alger Houari Boumediene

Altitude Profile

Advertisement - Login to hide

DAAS

Details ICAO DAAS (QSF)
Name Ain Arnat
Region Algeria
Timezone Africa/Algiers (UTC+1.0)
Stats Elevation 3,360 ft / 1,024 m (AMSL)
Location 36.178129° 5.324493°
Runways 1
Magnetic Variation 1.521° E

METAR

DAAS 270500Z 18011KT CAVOK 20/06 Q1018

Decode

TAF

TAF DAAS 262300Z 2700/2724 VRB02KT 8000 FEW030 BKN200 BECMG 2709/2712 17014KT TEMPO 2712/2718 FEW026CB

Decode

Departure Runways

ID Width Length Bearing (true) Bearing (mag) Surface Threshold Offset Overrun Length
09 125 ft / 38 m 6,320 ft / 1,926 m 88.49° 86.97° Asphalt 300 ft / 91 m 0 ft / 0 m
27 125 ft / 38 m 6,320 ft / 1,926 m 268.51° 266.99° Asphalt 329 ft / 100 m 0 ft / 0 m

DAAG

Details ICAO DAAG (ALG)
Name Alger Houari Boumediene
Region Algeria
Timezone Africa/Algiers (UTC+1.0)
Stats Elevation 82 ft / 25 m (AMSL)
Location 36.697521° 3.213079°
Runways 2
Magnetic Variation 1.103° E

METAR

DAAG 270530Z VRB01KT 5000 BKN008 SCT200 18/17 Q1012

Decode

TAF

TAF TAF DAAG 262300Z 2700/2724 VRB02KT 9999 SCT020 BKN200 BECMG 2707/2710 28010KT TEMPO 2710/2718 28020G30KT 5000 -TSRA FEW023CB BECMG 2716/2719 VRB02KT

Decode

Destination Runways

ID Width Length Bearing (true) Bearing (mag) Surface Threshold Offset Overrun Length
05 197 ft / 60 m 11,459 ft / 3,493 m 52.87° 51.77° Asphalt 0 ft / 0 m 0 ft / 0 m
09 148 ft / 45 m 11,442 ft / 3,487 m 91.75° 90.65° Asphalt 0 ft / 0 m 1,017 ft / 310 m
23 197 ft / 60 m 11,459 ft / 3,493 m 232.89° 231.79° Asphalt 0 ft / 0 m 0 ft / 0 m
27 148 ft / 45 m 11,442 ft / 3,487 m 271.78° 270.68° Asphalt 0 ft / 0 m 0 ft / 0 m

Approach Navaids

Runway Type Ident Frequency Range Bearing (true) Bearing (mag) Slope Elevation
09 Localiser HB 108.50 MHz 18 nm / 33 km 91.73° 90.63° - 82 ft / 25 m (AMSL)
09 Glidescope HB 108.50 MHz 10 nm / 19 km 91.77° 90.66° 3.00° 82 ft / 25 m (AMSL)
23 Localiser AG 110.30 MHz 18 nm / 33 km 232.74° 231.64° - 82 ft / 25 m (AMSL)
23 Glidescope AG 110.30 MHz 10 nm / 19 km 232.88° 231.78° 3.00° 82 ft / 25 m (AMSL)

Popular Alternatives